Logo AVAMET
Benvolgut visitant, si us plau, ingressa Recuperar contrasenya
AVAMET paisatges

Redovà

Dades diàries. Acumulats / Últims 30 dies disponibles

Data Temperatura (°C) Humitat rel. (%) Pressió rel. (hPa) Vent (km/h) Precipitació
Mínima Mitjana Màxima Amplitud
tèrmica
Mínima Mitjana Màxima Mínima Mitjana Màxima Predom. Mitjana Ràfega
màxima
Total
(mm)
Índex-n
Mínima Mitjana Màxima Mínima Mitjana Màxima n
0 a 1
P0 max
mm 5'
Dades mensuals acumulades fins l'últim dia disponible
07/2020 20,4 21,9 23,1 26,8 27,4 32,4 40,1 19,7 23 69 90 1.011 1.018 1.023   3,4 33,8 0,0
Dades anuals acumulades fins l'últim dia disponible
2020 2,6 13,3 23,1 18,0 10,3 23,5 40,1 37,5 23 68 96 1.004 1.020 1.037   3,1 56,3 268,6
Últims 30 dies disponibles
08-07-2020 22,8     27,9     31,3 8,5 48 65 85 1.016 1.018 1.019 ESE 7,1 33,8 0,0
07-07-2020 20,7     23,5     27,4 6,7 58 77 86 1.017 1.017 1.018 SSE 0,3 14,5 0,0
06-07-2020 20,4     26,8     33,8 13,4 27 60 84 1.016 1.018 1.020 E 3,4 27,4 0,0
05-07-2020 21,6     25,7     31,8 10,2 46 68 81 1.019 1.021 1.023 SE 2,2 24,1 0,0
04-07-2020 22,8     26,5     30,8 8,0 56 74 90 1.021 1.022 1.023 E 4,0 22,5 0,0
03-07-2020 23,1     26,5     31,4 8,3 57 76 88 1.016 1.019 1.022 SE 3,9 27,4 0,0
02-07-2020 22,6     27,5     32,9 10,3 56 72 86 1.012 1.014 1.016 SSE 4,3 27,4 0,0
01-07-2020 21,3     30,1     40,1 18,8 23 57 82 1.011 1.013 1.014 ESE 1,6 22,5 0,0
30-06-2020 22,0     29,5     32,3 10,3 44 58 75 1.012 1.014 1.016 ENE 8,1 27,4 0,0
27-06-2020 23,1     23,4     24,2 1,1 81 83 84 1.016 1.016 1.016 ENE 0,0 8,0 0,0
26-06-2020 21,0     27,3     31,1 10,1 48 63 79 1.014 1.015 1.017 E 5,1 25,7 0,0
25-06-2020 19,8     26,1     32,7 12,9 31 58 81 1.015 1.017 1.019 SSE 4,0 27,4 0,0
24-06-2020 19,5     24,7     30,1 10,6 42 66 84 1.017 1.018 1.020 ESE 4,8 30,6 0,0
23-06-2020 20,1     25,3     29,8 9,7 47 62 77 1.018 1.020 1.022 E 3,9 25,7 0,0
22-06-2020 20,3     25,7     30,8 10,5 38 64 85 1.021 1.022 1.024 SSE 4,2 27,4 0,0
21-06-2020 19,6     25,4     31,1 11,5 49 68 87 1.021 1.022 1.023 SE 4,6 29,0 0,0
20-06-2020 18,8     24,5     30,5 11,7 49 70 88 1.021 1.022 1.023 ESE 3,9 25,7 0,0
19-06-2020 21,2     24,3     28,8 7,6 55 74 92 1.017 1.019 1.022 E 3,3 24,1 2,8 0,54 1,60
18-06-2020 21,4     23,6     27,8 6,4 61 75 85 1.014 1.015 1.018 E 5,8 29,0 0,0
17-06-2020 19,0     23,1     28,5 9,5 56 77 89 1.014 1.017 1.018 E 4,1 25,7 0,0
16-06-2020 18,6     24,2     29,2 10,6 42 64 83 1.015 1.018 1.020 E 5,3 32,2 0,0
15-06-2020 18,4     25,7     32,7 14,3 28 53 83 1.019 1.020 1.021 SE 3,1 27,4 0,0
14-06-2020 17,6     23,4     30,1 12,5 33 53 70 1.018 1.019 1.021 SSE 2,4 22,5 0,0
13-06-2020 19,8     24,5     29,8 10,0 28 39 51 1.011 1.015 1.019 SO 5,1 30,6 0,0
12-06-2020 21,9     25,8     30,0 8,1 30 43 54 1.006 1.007 1.011 SO 3,6 25,7 0,0
11-06-2020 17,8     24,3     32,1 14,3 32 64 92 1.004 1.010 1.015 SSO 1,5 19,3 0,0
10-06-2020 16,7     24,0     27,4 10,7 57 69 91 1.014 1.016 1.018 SE 4,9 27,4 0,0
09-06-2020 17,4     18,5     22,7 5,3 70 85 90 1.017 1.018 1.019 SE 0,6 12,9 0,0
08-06-2020 15,9     20,3     25,7 9,8 55 80 89 1.011 1.014 1.018 E 3,6 29,0 27,8 0,12 5,00
07-06-2020 23,1     26,9     31,2 8,1 33 49 71 1.007 1.009 1.010 SO 4,3 27,4 0,0
Últims 13 mesos disponibles
06/2020 15,9 19,4 23,1 24,5 22,7 29,8 32,9 17,0 39 64 85 1.007 1.016 1.022 E 3,7 40,2 34,0
05/2020 12,9 16,7 19,6 22,1 21,5 27,8 33,8 20,9 50 63 80 1.008 1.018 1.027 ESE 3,5 51,5 28,0
04/2020 9,6 13,1 16,7 17,1 16,9 22,0 28,4 18,8 53 72 85 1.008 1.017 1.027 SE 3,1 33,8 27,8
03/2020 7,7 11,5 16,4 15,7 12,6 20,4 30,6 22,9 36 66 89 1.010 1.018 1.026 SO 4,3 51,5 112,8
02/2020 4,9 10,1 15,9 15,3 16,6 22,1 27,4 22,5 40 70 86 1.017 1.027 1.035 SSO 2,1 56,3 2,4
01/2020 2,6 7,1 14,3 11,6 10,3 17,2 22,9 20,3 60 75 89 1.015 1.027 1.034 SSE 1,7 40,2 63,6
12/2019 5,4 10,5 17,9 14,5 13,0 18,9 25,2 19,8 45 69 87 1.008 1.021 1.034 SO 2,6 53,1 43,4
11/2019 6,8 12,1 20,0 16,1 15,2 20,4 28,4 21,6 40 58 91 1.002 1.013 1.021 SSO 3,7 51,5 10,8
10/2019 11,2 16,2 22,1 21,3 17,4 26,6 34,9 23,7 45 68 90 1.010 1.018 1.024 SSO 2,0 33,8 19,2
09/2019 16,3 20,7 24,2 24,5 22,9 29,4 35,4 19,1 48 74 88 1.012 1.019 1.024 SSE 2,9 51,5 307,6
08/2019 19,8 22,7 25,8 27,3 29,5 33,0 42,7 22,9 36 67 80 1.012 1.017 1.021 ESE 2,4 45,1 32,8
07/2019 21,0 23,1 26,5 28,3 29,6 33,7 38,9 17,9 36 60 73 1.008 1.015 1.021 ESE 4,1 41,8 0,2
06/2019 13,9 18,6 23,2 24,4 24,7 30,2 36,3 22,4 37 59 73 1.010 1.016 1.024 SSE 3,8 49,9 0,8
Tots els anys disponibles
2019 1,3 14,5 26,5 19,3 13,0 24,8 42,7 41,4 36 64 91 999 1.019 1.034 SSE 2,8 57,9 519,8
Temperatura (°C)
Humitat relativa (%)
Velocitat del vent i ràfega màxima (km/h)
Direcció del vent (°)
Pressió (hPa)
Precipitació (mm)
Nota sobre les dades: s'avisa a l'usuari de la provisionalitat i no oficialitat d'aquestes dades
Logo AVAMET blanc
Web allotjada a Sollutia
Llicència de Creative CommonsLa web d'AVAMET i els seus continguts estan subjectes a una llicència de
Reconeixement - No Comercial - Compartir igual
Últimes estacions: Vilamarxant - La Pedrera (Soci), Càlig (Ajuntament Soci), Quesa - Hotel La Rocha (Soci), Agres - Les Eres (Soci), la Vilavella - Ptda Forns (Soci), Miramar - Platja (Inforatge), San Fulgencio - Centre & San Fulgencio - Urb. La Marina (MeteOrihuela), Ontinyent - els Gínjols (Soci), Orba (Aj. Soci) - - -